Time;durP1;ratioP1;P1;durP2;ratioP2;P2;SDS_P1;SDS_P2;PMS_P1;PMS_P2;Temp;Humidity;BMP_temperature;BMP_pressure;BME280_temperature;BME280_humidity;BME280_pressure;Samples;Min_cycle;Max_cycle;Signal;HPM_P1;HPM_P2
2022/09/24 00:02:27;;;;;;;0.98;0.82;;;;;;;8.69;75.76;99754.69;5114790;28;20048;-67
2022/09/24 00:04:58;;;;;;;0.60;0.60;;;;;;;8.70;75.88;99747.91;5115335;28;20389;-67
2022/09/24 00:07:26;;;;;;;0.95;0.95;;;;;;;8.69;75.56;99741.13;5115019;28;20460;-67
2022/09/24 00:09:55;;;;;;;0.50;0.50;;;;;;;8.68;75.17;99744.53;5114665;27;20093;-67
2022/09/24 00:12:23;;;;;;;0.60;0.57;;;;;;;8.66;75.74;99747.03;5114649;28;20047;-67
2022/09/24 00:14:52;;;;;;;1.33;1.23;;;;;;;8.62;75.86;99737.69;5114548;28;20039;-67
2022/09/24 00:17:21;;;;;;;1.08;0.98;;;;;;;8.61;76.22;99737.69;5114667;28;20027;-66
2022/09/24 00:19:50;;;;;;;0.73;0.73;;;;;;;8.61;75.95;99737.69;5114504;28;20126;-66
2022/09/24 00:22:20;;;;;;;0.52;0.52;;;;;;;8.60;76.03;99738.50;5114367;28;20036;-67
2022/09/24 00:27:27;;;;;;;0.70;0.70;;;;;;;8.50;75.32;99726.53;5114674;28;20031;-67
2022/09/24 00:29:56;;;;;;;0.65;0.65;;;;;;;8.48;75.71;99726.53;5113167;28;20481;-66
2022/09/24 00:32:25;;;;;;;0.70;0.70;;;;;;;8.52;75.65;99729.94;5114635;28;20501;-66
2022/09/24 00:34:54;;;;;;;0.68;0.68;;;;;;;8.55;75.82;99724.91;5114346;28;20420;-67
2022/09/24 00:37:24;;;;;;;0.60;0.60;;;;;;;8.60;75.76;99723.25;5114174;28;20039;-67
2022/09/24 00:39:53;;;;;;;0.55;0.55;;;;;;;8.61;75.20;99718.16;5114309;28;20044;-66
2022/09/24 00:42:22;;;;;;;2.28;0.88;;;;;;;8.60;75.12;99716.47;5113325;28;20039;-67
2022/09/24 00:44:55;;;;;;;0.75;0.75;;;;;;;8.60;75.47;99705.44;5114495;28;20122;-66
2022/09/24 00:47:31;;;;;;;0.75;0.73;;;;;;;8.62;75.34;99708.84;5114183;28;20485;-67
2022/09/24 00:50:07;;;;;;;0.68;0.68;;;;;;;8.63;76.30;99706.31;5114430;28;20077;-66
2022/09/24 00:52:45;;;;;;;0.45;0.45;;;;;;;8.64;75.87;99714.78;5113921;28;20515;-66
2022/09/24 00:55:15;;;;;;;0.32;0.32;;;;;;;8.62;75.56;99716.47;5113877;28;20044;-66
2022/09/24 00:57:45;;;;;;;0.47;0.47;;;;;;;8.62;76.08;99708.84;5114303;28;20142;-66
2022/09/24 01:00:14;;;;;;;;;;;;;;;8.62;75.52;99708.84;5114427;28;20050;-67
2022/09/24 01:02:46;;;;;;;0.80;0.75;;;;;;;8.63;76.27;99710.56;5113867;28;19923;-66
2022/09/24 01:05:15;;;;;;;0.30;0.30;;;;;;;8.64;75.58;99708.00;5114281;28;20071;-66
2022/09/24 01:07:47;;;;;;;1.52;1.23;;;;;;;8.62;76.20;99698.66;5114403;28;20042;-67
2022/09/24 01:10:46;;;;;;;0.40;0.40;;;;;;;8.64;76.11;99707.16;5114274;28;20052;-67
2022/09/24 01:13:17;;;;;;;0.77;0.75;;;;;;;8.61;76.10;99702.91;5113704;28;20215;-66
2022/09/24 01:15:53;;;;;;;8.15;2.72;;;;;;;8.60;76.35;99710.53;5113827;28;20058;-67
2022/09/24 01:18:34;;;;;;;0.65;0.65;;;;;;;8.64;76.55;99702.91;5114110;28;20562;-66
2022/09/24 01:21:23;;;;;;;0.90;0.82;;;;;;;8.67;75.43;99707.19;5113740;28;20059;-66
2022/09/24 01:24:09;;;;;;;;;;;;;;;8.68;75.44;99701.28;5114266;28;20096;-67
2022/09/24 01:26:51;;;;;;;0.30;0.30;;;;;;;8.69;76.09;99695.31;5113603;28;19973;-67
2022/09/24 01:29:40;;;;;;;1.70;1.13;;;;;;;8.70;76.29;99705.53;5114558;28;20089;-67
2022/09/24 01:32:18;;;;;;;0.85;0.77;;;;;;;8.71;76.02;99708.91;5113740;28;20059;-66
2022/09/24 01:34:52;;;;;;;0.85;0.85;;;;;;;8.71;75.46;99703.81;5114067;28;20043;-66
2022/09/24 01:37:23;;;;;;;0.85;0.85;;;;;;;8.74;76.28;99704.69;5113630;28;20048;-66
2022/09/24 01:39:54;;;;;;;0.82;0.82;;;;;;;8.75;75.28;99716.59;5114025;28;20059;-67
2022/09/24 01:42:27;;;;;;;2.47;1.25;;;;;;;8.77;75.45;99712.34;5113886;28;20122;-67
2022/09/24 01:44:58;;;;;;;0.20;0.20;;;;;;;8.79;76.00;99722.53;5113677;28;20052;-66
2022/09/24 01:47:31;;;;;;;1.58;1.48;;;;;;;8.81;75.95;99709.81;5113854;28;20051;-66
2022/09/24 01:50:04;;;;;;;0.40;0.40;;;;;;;8.84;75.78;99715.78;5113620;28;20054;-67
2022/09/24 01:52:38;;;;;;;1.30;0.73;;;;;;;8.83;74.96;99708.97;5114303;28;20093;-66
2022/09/24 01:55:10;;;;;;;0.40;0.40;;;;;;;8.81;76.15;99708.13;5113614;28;20075;-67
2022/09/24 01:57:42;;;;;;;0.57;0.57;;;;;;;8.82;75.43;99701.34;5113498;28;20055;-67
2022/09/24 02:00:15;;;;;;;6.72;0.90;;;;;;;8.85;75.23;99704.78;5113737;28;20485;-67
2022/09/24 02:02:48;;;;;;;1.75;1.65;;;;;;;8.88;75.37;99694.59;5114279;28;20108;-67
2022/09/24 02:05:26;;;;;;;1.27;1.00;;;;;;;8.83;76.23;99696.25;5117188;28;20055;-67
2022/09/24 02:08:01;;;;;;;1.60;0.85;;;;;;;8.85;75.45;99699.69;5117459;28;20044;-67
2022/09/24 02:10:38;;;;;;;0.40;0.40;;;;;;;8.86;74.99;99695.44;5117034;28;20042;-66
2022/09/24 02:13:12;;;;;;;0.30;0.30;;;;;;;8.93;75.34;99695.47;5117380;28;20048;-67
2022/09/24 02:15:46;;;;;;;1.27;0.98;;;;;;;9.00;76.02;99702.31;5117285;28;20112;-67
2022/09/24 02:18:19;;;;;;;0.63;0.63;;;;;;;9.01;75.43;99698.94;5117164;28;20409;-67
2022/09/24 02:20:51;;;;;;;1.23;1.13;;;;;;;8.99;75.32;99699.75;5116851;28;20051;-67
2022/09/24 02:23:20;;;;;;;1.08;0.98;;;;;;;8.97;75.96;99697.22;5116763;28;20039;-67
2022/09/24 02:25:56;;;;;;;1.15;1.05;;;;;;;8.98;75.85;99695.50;5116757;28;20130;-67
2022/09/24 02:28:26;;;;;;;0.57;0.57;;;;;;;8.92;75.58;99693.78;5116802;28;20131;-66
2022/09/24 02:30:59;;;;;;;;;;;;;;;8.95;75.17;99691.25;5117317;28;20043;-67
2022/09/24 02:36:12;;;;;;;2.63;0.93;;;;;;;8.90;76.17;99684.44;5116524;28;20052;-66
2022/09/24 02:38:41;;;;;;;0.70;0.70;;;;;;;8.89;75.72;99681.03;5116497;28;20138;-67
2022/09/24 02:41:10;;;;;;;1.60;1.50;;;;;;;8.90;76.49;99672.56;5116369;28;20052;-67
2022/09/24 02:43:39;;;;;;;0.70;0.70;;;;;;;8.88;75.83;99665.78;5116557;28;20387;-66
2022/09/24 02:46:10;;;;;;;0.80;0.80;;;;;;;8.89;76.12;99672.56;5116364;28;20049;-67
2022/09/24 02:48:38;;;;;;;0.40;0.40;;;;;;;8.84;75.80;99674.22;5115723;28;20144;-67
2022/09/24 02:51:07;;;;;;;1.17;1.02;;;;;;;8.82;75.96;99666.59;5116178;28;20481;-67
2022/09/24 02:53:36;;;;;;;0.55;0.55;;;;;;;8.80;76.39;99665.72;5116493;28;20047;-67
2022/09/24 02:56:06;;;;;;;1.40;1.17;;;;;;;8.79;75.52;99661.47;5115899;28;20047;-68
2022/09/24 02:58:36;;;;;;;1.50;1.40;;;;;;;8.77;75.42;99663.16;5116154;28;20048;-67
2022/09/24 03:01:05;;;;;;;;;;;;;;;8.76;75.70;99653.81;5116575;28;20439;-67
2022/09/24 03:03:35;;;;;;;0.63;0.63;;;;;;;8.74;76.01;99653.81;5115914;28;20026;-66
2022/09/24 03:06:04;;;;;;;1.33;1.00;;;;;;;8.70;75.75;99646.16;5116544;28;20485;-66
2022/09/24 03:08:34;;;;;;;0.53;0.53;;;;;;;8.70;75.79;99648.69;5116275;28;20057;-66
2022/09/24 03:11:03;;;;;;;0.47;0.47;;;;;;;8.71;76.06;99647.84;5116163;28;20059;-67
2022/09/24 03:13:31;;;;;;;0.80;0.80;;;;;;;8.71;75.58;99647.84;5115790;28;20046;-66
2022/09/24 03:16:00;;;;;;;1.73;1.45;;;;;;;8.72;75.79;99652.09;5115697;28;20043;-67
2022/09/24 03:18:29;;;;;;;1.17;0.93;;;;;;;8.74;76.09;99647.88;5115803;28;20089;-67
2022/09/24 03:21:03;;;;;;;0.77;0.77;;;;;;;8.75;75.87;99647.03;5115902;28;20409;-67
2022/09/24 03:23:31;;;;;;;1.20;1.10;;;;;;;8.77;76.23;99642.81;5115557;28;20047;-66
2022/09/24 03:26:00;;;;;;;0.50;0.50;;;;;;;8.77;75.42;99642.81;5115561;28;20485;-67
2022/09/24 03:28:29;;;;;;;0.45;0.45;;;;;;;8.77;75.87;99637.72;5115489;28;20038;-67
2022/09/24 03:31:00;;;;;;;1.10;0.40;;;;;;;8.81;76.10;99643.66;5115728;28;20493;-67
2022/09/24 03:33:32;;;;;;;2.08;1.42;;;;;;;8.83;75.14;99637.72;5115460;28;20515;-66
2022/09/24 03:36:05;;;;;;;0.73;0.73;;;;;;;8.78;76.01;99629.25;5115698;28;20493;-66
2022/09/24 03:38:34;;;;;;;1.35;1.25;;;;;;;8.77;75.44;99630.06;5115672;28;20079;-66
2022/09/24 03:41:03;;;;;;;;;;;;;;;8.76;75.62;99630.91;5115984;28;20048;-67
2022/09/24 03:43:32;;;;;;;1.05;0.95;;;;;;;8.71;75.76;99627.47;5115124;28;19920;-67
2022/09/24 03:46:01;;;;;;;0.52;0.52;;;;;;;8.70;76.13;99624.13;5115482;28;20067;-67
2022/09/24 03:48:30;;;;;;;0.85;0.50;;;;;;;8.63;75.47;99624.06;5115455;28;20131;-67
2022/09/24 03:51:05;;;;;;;0.60;0.60;;;;;;;8.59;75.98;99627.44;5115689;28;20071;-66
2022/09/24 03:53:34;;;;;;;0.60;0.60;;;;;;;8.55;75.54;99620.59;5115013;28;20078;-66
2022/09/24 03:56:04;;;;;;;0.60;0.60;;;;;;;8.57;76.36;99624.00;5114514;28;20062;-67
2022/09/24 03:58:36;;;;;;;0.80;0.55;;;;;;;8.55;75.28;99621.47;5115268;28;20047;-67
2022/09/24 04:01:06;;;;;;;0.25;0.25;;;;;;;8.56;75.77;99627.41;5115249;28;20497;-66
2022/09/24 04:03:35;;;;;;;0.82;0.80;;;;;;;8.59;76.08;99623.19;5114941;28;20036;-67
2022/09/24 04:06:07;;;;;;;1.27;1.05;;;;;;;8.64;76.02;99630.84;5115112;28;20067;-67
2022/09/24 04:08:35;;;;;;;0.80;0.77;;;;;;;8.66;75.47;99630.00;5115077;28;20044;-66
2022/09/24 04:11:04;;;;;;;0.63;0.63;;;;;;;8.70;75.24;99621.56;5114701;28;20040;-67
2022/09/24 04:13:33;;;;;;;0.77;0.67;;;;;;;8.70;76.18;99623.25;5114854;28;20048;-67
2022/09/24 04:16:02;;;;;;;0.52;0.50;;;;;;;8.71;75.78;99627.47;5114992;28;20043;-67
2022/09/24 04:18:31;;;;;;;0.77;0.77;;;;;;;8.69;75.56;99613.91;5114862;28;20051;-66
2022/09/24 04:21:08;;;;;;;0.90;0.90;;;;;;;8.70;75.51;99613.06;5114864;28;20039;-67
2022/09/24 04:23:36;;;;;;;0.82;0.82;;;;;;;8.66;75.80;99609.66;5114426;28;20505;-67
2022/09/24 04:26:05;;;;;;;0.73;0.73;;;;;;;8.69;75.28;99613.91;5114012;28;20040;-66
2022/09/24 04:28:34;;;;;;;0.30;0.30;;;;;;;8.69;75.09;99608.81;5114407;28;20039;-66
2022/09/24 04:31:03;;;;;;;0.60;0.35;;;;;;;8.67;75.91;99600.34;5114665;28;20495;-67
2022/09/24 04:33:32;;;;;;;0.40;0.40;;;;;;;8.67;75.74;99605.41;5114263;28;20047;-66
2022/09/24 04:36:01;;;;;;;2.28;0.68;;;;;;;8.64;75.19;99597.75;5114159;28;20040;-67
2022/09/24 04:38:31;;;;;;;0.90;0.90;;;;;;;8.65;75.74;99602.03;5114273;28;20111;-66
2022/09/24 04:41:06;;;;;;;0.43;0.43;;;;;;;8.63;75.58;99598.63;5114554;28;20067;-67
2022/09/24 04:43:36;;;;;;;0.63;0.63;;;;;;;8.58;74.92;99602.84;5114477;28;20112;-67
2022/09/24 04:46:05;;;;;;;2.67;1.17;;;;;;;8.56;75.34;99596.88;5114232;28;20059;-67
2022/09/24 04:48:37;;;;;;;;;;;;;;;8.51;75.14;99594.31;5114865;28;20044;-67
2022/09/24 04:51:07;;;;;;;0.70;0.70;;;;;;;8.45;75.89;99594.28;5114427;28;19985;-67
2022/09/24 04:53:37;;;;;;;1.20;1.05;;;;;;;8.47;75.96;99600.22;5114868;28;20051;-67
2022/09/24 04:56:10;;;;;;;0.30;0.30;;;;;;;8.49;76.09;99590.06;5114035;28;20436;-67
2022/09/24 04:58:39;;;;;;;1.45;1.05;;;;;;;8.52;75.88;99587.53;5114348;28;20416;-66
2022/09/24 05:01:08;;;;;;;0.97;0.93;;;;;;;8.56;76.46;99604.53;5114596;28;20038;-66
2022/09/24 05:03:36;;;;;;;1.85;1.30;;;;;;;8.59;75.59;99594.38;5113879;28;20280;-66
2022/09/24 05:06:05;;;;;;;0.40;0.40;;;;;;;8.61;75.30;99595.22;5114187;28;20066;-66
2022/09/24 05:08:34;;;;;;;0.32;0.32;;;;;;;8.67;76.22;99600.34;5114236;28;20511;-67
2022/09/24 05:11:04;;;;;;;3.65;0.82;;;;;;;8.73;76.06;99595.28;5113867;28;20046;-67
2022/09/24 05:13:33;;;;;;;2.00;1.15;;;;;;;8.78;75.92;99598.72;5114205;28;20101;-67
2022/09/24 05:16:03;;;;;;;0.40;0.40;;;;;;;8.81;75.46;99593.63;5112576;28;20039;-66
2022/09/24 05:18:31;;;;;;;3.83;0.98;;;;;;;8.86;75.72;99597.03;5114129;28;20101;-67
2022/09/24 05:21:00;;;;;;;0.68;0.68;;;;;;;8.88;75.26;99599.63;5113803;28;20079;-67
2022/09/24 05:23:29;;;;;;;0.38;0.38;;;;;;;8.90;75.23;99595.38;5113755;28;20085;-67
2022/09/24 05:28:38;;;;;;;0.30;0.30;;;;;;;8.99;74.87;99603.91;5113794;28;20051;-67
2022/09/24 05:31:07;;;;;;;1.08;0.98;;;;;;;9.04;75.35;99599.69;5112809;28;20051;-67
2022/09/24 05:33:37;;;;;;;0.22;0.22;;;;;;;8.99;75.63;99593.72;5114028;28;20378;-66
2022/09/24 05:36:06;;;;;;;0.75;0.65;;;;;;;9.08;75.19;99603.94;5113633;28;20131;-67
2022/09/24 05:38:35;;;;;;;0.75;0.70;;;;;;;9.10;76.14;99607.31;5115704;28;20039;-67
2022/09/24 05:41:09;;;;;;;0.40;0.40;;;;;;;9.08;75.20;99601.38;5117980;28;20138;-67
2022/09/24 05:43:40;;;;;;;0.38;0.38;;;;;;;9.12;75.08;99600.53;5117478;28;20035;-67
2022/09/24 05:46:09;;;;;;;0.20;0.20;;;;;;;9.21;75.73;99600.56;5117506;28;20043;-67
2022/09/24 05:48:37;;;;;;;0.30;0.30;;;;;;;9.31;74.91;99607.41;5117123;28;20530;-68
2022/09/24 05:51:06;;;;;;;0.32;0.32;;;;;;;9.34;75.04;99602.31;5117669;28;20093;-67
2022/09/24 05:53:34;;;;;;;0.28;0.28;;;;;;;9.36;74.74;99603.16;5117336;28;20493;-68
2022/09/24 05:56:03;;;;;;;1.15;1.00;;;;;;;9.43;75.09;99609.97;5117340;28;20064;-68
2022/09/24 05:58:32;;;;;;;1.25;1.15;;;;;;;9.50;75.20;99607.47;5117043;28;20395;-68
2022/09/24 06:01:02;;;;;;;2.78;1.23;;;;;;;9.47;74.55;99592.16;5117105;28;20039;-68
2022/09/24 06:03:30;;;;;;;2.90;0.98;;;;;;;9.57;74.81;99598.97;5117068;28;20139;-68
2022/09/24 06:06:00;;;;;;;0.40;0.40;;;;;;;9.70;74.14;99606.63;5116698;27;20055;-68
2022/09/24 06:08:32;;;;;;;0.40;0.40;;;;;;;9.74;74.57;99604.97;5117152;28;20134;-67
2022/09/24 06:11:01;;;;;;;0.60;0.60;;;;;;;9.75;74.66;99604.09;5116115;28;20047;-68
2022/09/24 06:13:30;;;;;;;0.20;0.20;;;;;;;9.76;74.14;99613.44;5117101;28;20424;-67
2022/09/24 06:16:05;;;;;;;2.13;0.88;;;;;;;9.78;74.47;99609.19;5116738;28;20052;-68
2022/09/24 06:18:35;;;;;;;0.77;0.77;;;;;;;9.76;74.05;99605.81;5116899;28;20051;-67
2022/09/24 06:21:06;;;;;;;0.40;0.40;;;;;;;9.75;74.20;99611.75;5117188;28;20388;-68
2022/09/24 06:23:36;;;;;;;1.27;1.15;;;;;;;9.77;74.12;99607.50;5116263;27;20040;-68
2022/09/24 06:26:07;;;;;;;0.65;0.65;;;;;;;9.80;73.37;99612.59;5116676;28;20046;-68
2022/09/24 06:28:36;;;;;;;1.00;0.50;;;;;;;9.86;73.63;99615.16;5116225;28;20040;-68
2022/09/24 06:31:08;;;;;;;0.28;0.28;;;;;;;9.87;72.90;99619.41;5116070;28;20035;-68
2022/09/24 06:33:37;;;;;;;1.10;1.00;;;;;;;9.92;72.81;99615.16;5116457;28;20043;-69
2022/09/24 06:36:05;;;;;;;0.75;0.75;;;;;;;9.96;72.70;99616.84;5116286;28;20043;-68
2022/09/24 06:38:35;;;;;;;0.40;0.40;;;;;;;9.96;72.61;99615.16;5116116;28;20532;-67
2022/09/24 06:41:05;;;;;;;;;;;;;;;10.02;73.05;99619.44;5117034;28;20027;-67
2022/09/24 06:43:33;;;;;;;1.13;1.05;;;;;;;10.08;72.97;99619.41;5116678;28;19919;-67
2022/09/24 06:46:03;;;;;;;0.40;0.40;;;;;;;10.21;72.80;99615.19;5116237;28;20092;-68
2022/09/24 06:48:35;;;;;;;1.27;0.98;;;;;;;10.43;72.05;99607.53;5115804;28;20504;-66
2022/09/24 06:51:05;;;;;;;3.03;1.58;;;;;;;10.59;71.83;99609.19;5115694;28;20043;-67
2022/09/24 06:53:34;;;;;;;0.73;0.68;;;;;;;10.69;71.26;99605.78;5115998;28;20051;-67
2022/09/24 06:56:03;;;;;;;2.03;0.77;;;;;;;10.85;70.85;99611.69;5115757;28;20050;-67
2022/09/24 06:58:32;;;;;;;1.58;0.98;;;;;;;10.97;70.84;99621.00;5116010;28;20047;-67
2022/09/24 07:01:02;;;;;;;2.00;0.75;;;;;;;11.00;70.26;99621.84;5116099;28;20045;-68
2022/09/24 07:03:34;;;;;;;0.63;0.63;;;;;;;11.04;70.40;99622.69;5116107;27;20131;-68
2022/09/24 07:06:05;;;;;;;1.55;1.42;;;;;;;11.11;69.81;99626.94;5115913;28;20478;-67
2022/09/24 07:08:34;;;;;;;0.93;0.60;;;;;;;11.14;69.63;99629.44;5115924;28;20063;-67
2022/09/24 07:11:02;;;;;;;0.95;0.90;;;;;;;11.16;70.14;99631.16;5115772;28;20040;-67
2022/09/24 07:13:31;;;;;;;3.53;1.17;;;;;;;11.27;69.97;99631.13;5115846;28;20104;-67
2022/09/24 07:16:00;;;;;;;0.80;0.80;;;;;;;11.44;69.69;99624.22;5115746;28;20074;-68
2022/09/24 07:18:29;;;;;;;1.33;1.03;;;;;;;11.66;69.42;99625.78;5116080;28;20508;-68
2022/09/24 07:20:59;;;;;;;0.35;0.35;;;;;;;11.89;69.22;99621.41;5115652;28;20036;-67
2022/09/24 07:23:27;;;;;;;1.15;1.05;;;;;;;12.09;68.69;99616.97;5115696;28;20058;-67
2022/09/24 07:25:57;;;;;;;1.10;1.02;;;;;;;12.27;67.96;99620.25;5114352;28;20477;-67
2022/09/24 07:28:26;;;;;;;0.43;0.43;;;;;;;12.45;67.41;99625.22;5116141;28;20397;-67
2022/09/24 07:30:59;;;;;;;1.05;1.05;;;;;;;12.57;67.26;99617.44;5116096;28;20110;-67
2022/09/24 07:33:28;;;;;;;0.65;0.65;;;;;;;12.71;66.79;99625.81;5115524;28;20047;-67
2022/09/24 07:35:56;;;;;;;0.32;0.32;;;;;;;12.75;66.52;99619.78;5115420;28;20489;-66
2022/09/24 07:38:26;;;;;;;3.20;1.47;;;;;;;12.76;65.95;99621.50;5115681;28;20040;-67
2022/09/24 07:40:58;;;;;;;0.70;0.70;;;;;;;12.88;65.69;99629.06;5115315;28;20082;-67
2022/09/24 07:43:27;;;;;;;0.45;0.45;;;;;;;13.01;65.03;99638.28;5115267;28;20051;-68
2022/09/24 07:45:57;;;;;;;0.60;0.60;;;;;;;13.09;65.04;99625.44;5115036;27;20126;-68
2022/09/24 07:48:25;;;;;;;;;;;;;;;13.11;64.95;99619.41;5115748;28;20070;-68
2022/09/24 07:50:54;;;;;;;0.95;0.75;;;;;;;13.17;64.61;99618.50;5115061;28;19919;-67
2022/09/24 07:53:23;;;;;;;0.83;0.83;;;;;;;13.11;63.92;99609.16;5115012;28;20546;-68
2022/09/24 07:55:55;;;;;;;0.90;0.90;;;;;;;13.18;64.57;99615.91;5114713;28;20139;-69
2022/09/24 07:58:23;;;;;;;0.98;0.98;;;;;;;13.22;64.06;99615.00;5114964;28;20054;-67
2022/09/24 08:00:52;;;;;;;1.17;1.05;;;;;;;13.29;63.76;99623.47;5114513;28;20032;-67
2022/09/24 08:03:21;;;;;;;7.20;2.73;;;;;;;13.39;63.61;99615.63;5114765;28;20051;-67
2022/09/24 08:05:50;;;;;;;1.00;0.52;;;;;;;13.60;63.62;99608.53;5114924;28;20436;-68
2022/09/24 08:08:19;;;;;;;1.95;0.95;;;;;;;13.69;62.93;99608.41;5114942;28;20054;-68
2022/09/24 08:10:48;;;;;;;0.93;0.90;;;;;;;13.73;62.28;99604.91;5114642;28;20050;-67
2022/09/24 08:13:18;;;;;;;0.77;0.77;;;;;;;13.66;61.52;99588.78;5114946;28;20039;-67
2022/09/24 08:15:58;;;;;;;0.60;0.60;;;;;;;13.83;61.51;99609.03;5114673;28;20073;-67
2022/09/24 08:18:29;;;;;;;0.40;0.40;;;;;;;13.98;61.04;99601.13;5114942;28;20042;-66
2022/09/24 08:20:58;;;;;;;1.55;1.45;;;;;;;14.08;60.79;99592.41;5114534;28;20048;-67
2022/09/24 08:23:27;;;;;;;2.25;1.27;;;;;;;14.19;60.59;99592.22;5114547;28;20046;-68
2022/09/24 08:25:56;;;;;;;1.05;0.95;;;;;;;14.24;60.62;99587.84;5114560;28;20036;-68
2022/09/24 08:28:26;;;;;;;0.75;0.75;;;;;;;14.32;60.24;99586.03;5114419;27;20080;-68
2022/09/24 08:30:59;;;;;;;1.23;1.13;;;;;;;14.46;61.11;99590.06;5114587;28;20053;-68
2022/09/24 08:33:28;;;;;;;0.80;0.80;;;;;;;14.54;60.46;99577.09;5114765;28;20489;-68
2022/09/24 08:35:59;;;;;;;0.50;0.50;;;;;;;14.59;59.49;99585.53;5114579;28;20039;-68
2022/09/24 08:38:28;;;;;;;1.75;1.63;;;;;;;14.60;59.30;99592.38;5114237;28;20050;-68
2022/09/24 08:41:05;;;;;;;0.45;0.45;;;;;;;14.61;59.26;99584.63;5114264;28;20054;-68
2022/09/24 08:43:46;;;;;;;1.55;0.98;;;;;;;14.67;59.11;99593.94;5113232;28;20146;-67
2022/09/24 08:49:00;;;;;;;2.35;0.95;;;;;;;14.80;58.99;99589.44;5114343;28;20485;-67
2022/09/24 08:51:35;;;;;;;1.38;1.02;;;;;;;14.90;59.54;99594.34;5114385;28;20047;-67
2022/09/24 08:54:09;;;;;;;0.63;0.63;;;;;;;14.98;59.42;99594.19;5112893;28;20044;-67
2022/09/24 08:56:43;;;;;;;0.50;0.50;;;;;;;15.02;59.01;99590.72;5113895;28;20044;-67
2022/09/24 08:59:26;;;;;;;1.92;1.52;;;;;;;15.06;58.50;99582.03;5114389;28;20446;-67
2022/09/24 09:02:12;;;;;;;0.68;0.50;;;;;;;15.08;58.57;99585.44;5114297;28;20044;-67
2022/09/24 09:04:53;;;;;;;0.80;0.75;;;;;;;15.17;58.48;99577.50;5113964;28;20493;-67
2022/09/24 09:07:29;;;;;;;1.02;0.82;;;;;;;15.35;58.02;99579.72;5113965;28;20072;-67
2022/09/24 09:10:02;;;;;;;0.40;0.40;;;;;;;15.48;58.01;99560.56;5113923;28;20049;-67
2022/09/24 09:12:38;;;;;;;1.15;0.90;;;;;;;15.66;58.46;99567.03;5115992;28;20048;-67
2022/09/24 09:15:13;;;;;;;0.60;0.60;;;;;;;15.69;56.58;99564.41;5118208;28;20135;-68
2022/09/24 09:17:48;;;;;;;0.70;0.70;;;;;;;15.84;55.54;99564.88;5118257;28;20177;-67
2022/09/24 09:20:21;;;;;;;0.40;0.40;;;;;;;15.90;54.85;99564.75;5118168;28;20047;-65
2022/09/24 09:22:53;;;;;;;1.30;1.20;;;;;;;15.95;54.32;99567.22;5118272;28;20054;-69
2022/09/24 09:25:27;;;;;;;0.55;0.55;;;;;;;15.92;53.97;99568.13;5118242;27;20073;-67
2022/09/24 09:28:00;;;;;;;0.80;0.80;;;;;;;16.02;53.88;99559.31;5118147;28;20555;-65
2022/09/24 09:30:42;;;;;;;0.43;0.43;;;;;;;16.03;53.77;99555.81;5118128;28;20484;-66
2022/09/24 09:33:27;;;;;;;1.98;1.17;;;;;;;16.09;53.95;99554.84;5117803;28;20043;-66
2022/09/24 09:36:07;;;;;;;1.70;1.60;;;;;;;16.16;53.75;99558.09;5117711;28;20059;-67
2022/09/24 09:38:44;;;;;;;0.50;0.50;;;;;;;16.12;53.11;99551.34;5117680;28;20048;-68
2022/09/24 09:41:19;;;;;;;0.75;0.75;;;;;;;16.28;53.77;99557.78;5117970;28;20043;-66
2022/09/24 09:43:48;;;;;;;0.40;0.40;;;;;;;16.34;53.52;99560.22;5117552;28;20478;-67
2022/09/24 09:46:26;;;;;;;0.40;0.40;;;;;;;16.56;53.33;99556.19;5117437;28;20039;-67
2022/09/24 09:49:01;;;;;;;0.43;0.43;;;;;;;16.49;52.75;99542.59;5117758;28;20048;-66
2022/09/24 09:51:37;;;;;;;0.52;0.52;;;;;;;16.55;52.56;99544.22;5117442;27;20044;-66
2022/09/24 09:54:06;;;;;;;1.40;1.30;;;;;;;16.58;52.48;99559.59;5117439;28;20066;-65
2022/09/24 09:56:37;;;;;;;0.70;0.70;;;;;;;16.73;52.80;99560.00;5117376;28;20142;-65
2022/09/24 09:59:16;;;;;;;0.75;0.75;;;;;;;16.76;52.36;99559.09;5117304;28;20043;-66
2022/09/24 10:01:47;;;;;;;0.60;0.60;;;;;;;16.82;52.85;99563.25;5117603;28;20044;-65
2022/09/24 10:04:31;;;;;;;0.55;0.55;;;;;;;16.74;51.99;99550.56;5117243;28;20047;-66
2022/09/24 10:07:06;;;;;;;0.50;0.50;;;;;;;16.73;51.95;99560.00;5117312;28;20063;-69
2022/09/24 10:09:35;;;;;;;0.65;0.65;;;;;;;16.78;52.51;99544.41;5117133;28;20055;-65
2022/09/24 10:12:09;;;;;;;0.43;0.43;;;;;;;17.00;52.42;99558.41;5117382;28;20043;-66
2022/09/24 10:14:38;;;;;;;0.50;0.50;;;;;;;17.11;51.78;99551.19;5082333;28;20397;-65
2022/09/24 10:17:14;;;;;;;3.63;0.63;;;;;;;17.24;51.54;99549.09;5116923;28;20039;-65
2022/09/24 10:19:49;;;;;;;0.60;0.60;;;;;;;17.29;51.46;99550.66;5116940;28;20052;-65
2022/09/24 10:22:22;;;;;;;0.52;0.52;;;;;;;17.48;51.32;99555.25;5117293;28;20052;-66
2022/09/24 10:24:52;;;;;;;2.78;1.10;;;;;;;17.50;51.34;99553.47;5116409;28;20039;-66
2022/09/24 10:27:29;;;;;;;0.60;0.60;;;;;;;17.42;50.34;99558.84;5116657;28;20408;-65
2022/09/24 10:32:40;;;;;;;0.68;0.68;;;;;;;17.40;49.76;99558.06;5116956;28;20047;-66
2022/09/24 10:35:23;;;;;;;0.50;0.50;;;;;;;17.48;49.50;99556.09;5116953;28;20047;-66
2022/09/24 10:37:53;;;;;;;0.82;0.80;;;;;;;17.60;49.37;99544.56;5116947;28;20055;-65
2022/09/24 10:40:24;;;;;;;;;;;;;;;17.65;49.46;99537.53;5115710;28;20142;-66
2022/09/24 10:42:59;;;;;;;0.43;0.43;;;;;;;17.77;49.60;99543.16;5116472;28;19920;-66
2022/09/24 10:45:47;;;;;;;0.50;0.50;;;;;;;17.72;49.22;99544.19;5116685;28;20503;-66
2022/09/24 10:48:25;;;;;;;0.57;0.57;;;;;;;17.42;49.28;99544.22;5114347;27;20405;-65
2022/09/24 10:51:00;;;;;;;0.60;0.60;;;;;;;17.30;49.49;99544.59;5116719;27;20113;-65
2022/09/24 10:53:41;;;;;;;0.70;0.57;;;;;;;17.31;49.81;99538.56;5116259;28;20052;-67
2022/09/24 10:56:21;;;;;;;0.63;0.63;;;;;;;17.53;50.09;99537.91;5116601;28;20113;-65
2022/09/24 10:59:12;;;;;;;0.70;0.70;;;;;;;17.63;50.23;99539.34;5116180;28;20131;-66
2022/09/24 11:01:49;;;;;;;1.38;0.80;;;;;;;17.88;49.73;99535.06;5116029;28;20051;-66
2022/09/24 11:04:43;;;;;;;0.70;0.70;;;;;;;17.96;49.61;99538.25;5116122;28;20051;-67
2022/09/24 11:07:33;;;;;;;0.98;0.73;;;;;;;18.07;48.86;99533.56;5115897;28;20093;-65
2022/09/24 11:10:13;;;;;;;0.63;0.63;;;;;;;18.05;48.48;99528.44;5116270;28;20050;-65
2022/09/24 11:12:47;;;;;;;;;;;;;;;17.82;48.21;99519.78;5116708;28;20043;-65
2022/09/24 11:15:29;;;;;;;0.75;0.60;;;;;;;17.64;48.36;99512.59;5115796;28;19926;-66
2022/09/24 11:18:17;;;;;;;0.40;0.40;;;;;;;17.83;48.28;99516.28;5116137;28;20483;-65
2022/09/24 11:20:55;;;;;;;0.40;0.40;;;;;;;18.18;48.26;99513.38;5115713;28;20048;-67
2022/09/24 11:23:42;;;;;;;0.60;0.60;;;;;;;18.33;47.57;99523.16;5116025;28;20055;-65
2022/09/24 11:26:26;;;;;;;0.60;0.60;;;;;;;18.25;47.99;99521.75;5115658;28;20047;-66
2022/09/24 11:29:27;;;;;;;0.50;0.50;;;;;;;18.20;47.88;99527.09;5115591;28;20050;-65
2022/09/24 11:32:10;;;;;;;0.47;0.47;;;;;;;18.22;47.80;99525.28;5115741;28;20075;-65
2022/09/24 11:34:59;;;;;;;0.43;0.43;;;;;;;18.33;47.92;99520.59;5115551;28;20054;-65
2022/09/24 11:37:48;;;;;;;0.40;0.40;;;;;;;18.57;47.51;99521.53;5115321;28;20085;-68
2022/09/24 11:40:36;;;;;;;1.53;0.70;;;;;;;18.77;47.12;99515.63;5115709;28;20043;-66
2022/09/24 11:43:21;;;;;;;0.80;0.80;;;;;;;18.86;46.55;99502.38;5115590;28;20334;-65
2022/09/24 11:46:05;;;;;;;0.70;0.70;;;;;;;18.92;46.38;99494.38;5114165;28;20069;-67
2022/09/24 11:48:55;;;;;;;2.65;1.60;;;;;;;18.85;46.24;99496.34;5115448;28;20043;-65
2022/09/24 11:51:39;;;;;;;0.52;0.52;;;;;;;18.66;46.23;99496.19;5115411;28;20534;-67
2022/09/24 11:54:20;;;;;;;1.38;0.85;;;;;;;18.62;46.51;99489.41;5115399;28;20105;-66
2022/09/24 11:56:52;;;;;;;0.45;0.45;;;;;;;18.53;46.87;99488.91;5114599;28;20063;-67
2022/09/24 11:59:40;;;;;;;0.57;0.57;;;;;;;18.40;47.20;99498.84;5115015;28;20092;-66
2022/09/24 12:02:16;;;;;;;1.13;0.95;;;;;;;18.29;47.49;99500.94;5114920;28;20058;-67
2022/09/24 12:04:54;;;;;;;0.40;0.40;;;;;;;18.26;47.55;99495.03;5114936;28;20075;-67
2022/09/24 12:07:32;;;;;;;0.52;0.52;;;;;;;18.32;47.71;99498.25;5115135;28;20047;-68
2022/09/24 12:10:11;;;;;;;0.47;0.47;;;;;;;18.28;47.72;99488.94;5115030;28;20388;-66
2022/09/24 12:12:43;;;;;;;0.40;0.40;;;;;;;18.39;47.37;99497.13;5114813;28;20044;-66
2022/09/24 12:15:18;;;;;;;2.83;1.15;;;;;;;18.56;47.66;99489.66;5114698;28;20046;-65
2022/09/24 12:17:53;;;;;;;0.50;0.50;;;;;;;18.79;47.46;99493.97;5114563;28;20047;-67
2022/09/24 12:20:27;;;;;;;0.63;0.63;;;;;;;18.83;46.65;99481.78;5114924;28;20048;-67
2022/09/24 12:23:00;;;;;;;0.82;0.65;;;;;;;18.73;46.78;99476.97;5114823;28;20043;-67